Impacts METAR Board
IDs:

KCLT - Charlotte/Douglas In, NC, US

Updated at: 2200 UTC 25 May 2018
Potential Impact None Slight Moderate High
Time 25/10Z 25/11Z 25/12Z 25/13Z 25/14Z 25/15Z 25/16Z 25/17Z 25/18Z 25/19Z 25/20Z 25/21Z 25/22Z
Temp71 71 72 73 75 77 79 79 72 81 77 75 76
Dewpt69 69 69 69 68 68 70 68 68 72 73 72 72
Altim30.11 30.13 30.13 30.14 30.14 30.13 30.11 30.10 30.09 30.07 30.05 30.03 30.03
VIS9 7 9 9 10 10 10 7 10 10 10 10
CIG7 7 24 24 21 -- 46 60 26 45 100 250 75
CoverBKNBKNBKNBKNBKN--BKNBKNBKNBKNBKNBKNBKN
FltCatIFRIFRMVFRMVFRMVFRVFRVFRMVFRVFRVFRVFRVFR
WX-----------------RA--------
WDir1301301401501701401900290260280280310
WSpd5 7 9 5 4 5 4 0 8 5 6 5 4
WGst-- -- -- -- -- -- -- -- 15 -- -- -- --
Raw hourly METARs
KCLT 250952Z 13005KT 9SM BKN007 BKN025 22/21 A3011 RMK AO2 CIG 005V015 SLP188 T02170206 $
KCLT 251052Z 13007KT 7SM BKN007 BKN016 22/21 A3013 RMK AO2 SLP193 T02170206 $
KCLT 251152Z 14009KT 9SM FEW008 BKN024 BKN044 22/21 A3013 RMK AO2 SLP195 70006 T02220206 10222 20211 53003
KCLT 251252Z 15005KT 9SM SCT008 BKN024 BKN044 BKN250 23/21 A3014 RMK AO2 SLP197 T02280206
KCLT 251352Z 17004KT 10SM SCT014 BKN021 BKN045 BKN250 24/20 A3014 RMK AO2 SLP197 T02390200
KCLT 251452Z AUTO 14005KT 25/20 A3013 RMK AO2 SLP195 T02500200 RVRNO $
KCLT 251605Z 19004KT 10SM SCT025 BKN046 BKN250 26/21 A3011 RMK RAE01 SLP188 T02610211
KCLT 251652Z 00000KT 10SM FEW025TCU BKN060 BKN250 26/20 A3010 RMK RAE01 SLP184 T02610200 TCU E-SE AND NW
KCLT 251752Z 29008G15KT 7SM -RA BKN026 BKN048 BKN250 22/20 A3009 RMK RAB25 SLP182 T02220200 P0000 10266 20222 57003
KCLT 251852Z 26005KT 10SM SCT029 BKN045 BKN100 BKN250 27/22 A3007 RMK RAE02 SLP174 T02720222 P0003
KCLT 251952Z 28006KT 10SM FEW032 BKN100 BKN250 25/23 A3005 RMK SLP167 T02500227
KCLT 252052Z 28005KT 10SM FEW027 SCT110 BKN250 24/22 A3003 RMK TCU DSNT NE AND SE-S SLP162 T02390222 58014
KCLT 252152Z 31004KT 10SM SCT025TCU BKN075 BKN110 BKN250 24/22 A3003 RMK TCU E AND DSNT SE-SW SLP161 T02440222



Page loaded:  22:27 UTC  |   03:27 PM Pacific  |   04:27 PM Mountain  |   05:27 PM Central  |   06:27 PM Eastern

 

ADVISORIES

FORECASTS

FORECASTS

OBSERVATIONS

USER TOOLS

ABOUT US